Koosharem, Utah
Current Conditions -  °F | °C
As of 4:53 PM on Monday 24 Nov 2014 (Local Time) from KBCE Reporting Station
Clear Clear  
Wind Chill: 19°   Ceiling: Unl
Heat Index: 28°   Visibility: 10mi
Dew Point:   Wind: 10mph
Humidity: 41%   Direction: 20°NNE
Pressure: 30.37"   Gusts: NA
Location:  38.51°N, 111.88°W
Report Text: KBCE 242353Z AUTO 02009KT 10SM CLR M02/M14 A3037 RMK AO2 WSHFT 2249 SLP293 T10221139 10006 21022 53025
Loading
Personal Weather Stations






























Interactive Weather Map New forecast layout! Learn more

10-Day Weather Forecast

Advertisements
Track Severe Weather on mobile